sensor_id;sensor_type;location;lat;lon;timestamp;pressure;altitude;pressure_sealevel;temperature;humidity
77281;BME280;66339;47.262;17.144;2023-04-24T00:01:52;99215.78;;;20.97;52.89
77281;BME280;66339;47.262;17.144;2023-04-24T00:04:19;99211.00;;;20.94;53.04
77281;BME280;66339;47.262;17.144;2023-04-24T00:06:49;99214.81;;;20.93;53.00
77281;BME280;66339;47.262;17.144;2023-04-24T00:09:18;99205.63;;;20.94;53.04
77281;BME280;66339;47.262;17.144;2023-04-24T00:11:54;99205.63;;;20.94;53.05
77281;BME280;66339;47.262;17.144;2023-04-24T00:14:28;99202.94;;;20.94;52.97
77281;BME280;66339;47.262;17.144;2023-04-24T00:16:58;99200.91;;;20.91;53.12
77281;BME280;66339;47.262;17.144;2023-04-24T00:19:28;99200.91;;;20.91;53.06
77281;BME280;66339;47.262;17.144;2023-04-24T00:21:55;99195.53;;;20.91;53.07
77281;BME280;66339;47.262;17.144;2023-04-24T00:24:25;99197.12;;;20.92;52.99
77281;BME280;66339;47.262;17.144;2023-04-24T00:26:52;99198.69;;;20.93;53.04
77281;BME280;66339;47.262;17.144;2023-04-24T00:29:19;99191.72;;;20.92;52.98
77281;BME280;66339;47.262;17.144;2023-04-24T00:31:46;99188.56;;;20.90;53.06
77281;BME280;66339;47.262;17.144;2023-04-24T00:34:17;99192.69;;;20.88;53.22
77281;BME280;66339;47.262;17.144;2023-04-24T00:36:43;99187.75;;;20.90;53.17
77281;BME280;66339;47.262;17.144;2023-04-24T00:39:11;99191.56;;;20.89;53.01
77281;BME280;66339;47.262;17.144;2023-04-24T00:44:19;99185.87;;;20.90;52.98
77281;BME280;66339;47.262;17.144;2023-04-24T00:46:52;99180.81;;;20.89;53.02
77281;BME280;66339;47.262;17.144;2023-04-24T00:49:21;99185.87;;;20.90;53.13
77281;BME280;66339;47.262;17.144;2023-04-24T00:51:51;99180.50;;;20.90;53.05
77281;BME280;66339;47.262;17.144;2023-04-24T00:54:21;99177.81;;;20.90;53.02
77281;BME280;66339;47.262;17.144;2023-04-24T00:56:47;99189.38;;;20.91;52.91
77281;BME280;66339;47.262;17.144;2023-04-24T00:59:19;99183.81;;;20.87;53.04
77281;BME280;66339;47.262;17.144;2023-04-24T01:01:48;99183.50;;;20.89;52.98
77281;BME280;66339;47.262;17.144;2023-04-24T01:04:18;99176.56;;;20.88;53.25
77281;BME280;66339;47.262;17.144;2023-04-24T01:06:51;99177.81;;;20.90;53.00
77281;BME280;66339;47.262;17.144;2023-04-24T01:09:23;99178.63;;;20.91;52.93
77281;BME280;66339;47.262;17.144;2023-04-24T01:11:55;99181.12;;;20.87;53.11
77281;BME280;66339;47.262;17.144;2023-04-24T01:14:23;99181.94;;;20.88;52.94
77281;BME280;66339;47.262;17.144;2023-04-24T01:16:49;99178.13;;;20.89;53.02
77281;BME280;66339;47.262;17.144;2023-04-24T01:19:20;99171.47;;;20.86;53.08
77281;BME280;66339;47.262;17.144;2023-04-24T01:21:53;99174.94;;;20.87;53.05
77281;BME280;66339;47.262;17.144;2023-04-24T01:24:26;99172.59;;;20.85;53.08
77281;BME280;66339;47.262;17.144;2023-04-24T01:26:54;99166.25;;;20.90;53.29
77281;BME280;66339;47.262;17.144;2023-04-24T01:29:23;99164.53;;;20.85;53.32
77281;BME280;66339;47.262;17.144;2023-04-24T01:31:50;99165.13;;;20.82;53.21
77281;BME280;66339;47.262;17.144;2023-04-24T01:34:20;99158.53;;;20.88;53.12
77281;BME280;66339;47.262;17.144;2023-04-24T01:36:50;99160.53;;;20.82;53.10
77281;BME280;66339;47.262;17.144;2023-04-24T01:39:23;99164.53;;;20.85;53.38
77281;BME280;66339;47.262;17.144;2023-04-24T01:41:50;99161.38;;;20.83;53.36
77281;BME280;66339;47.262;17.144;2023-04-24T01:44:23;99157.88;;;20.82;53.34
77281;BME280;66339;47.262;17.144;2023-04-24T01:46:54;99146.66;;;20.80;53.25
77281;BME280;66339;47.262;17.144;2023-04-24T01:49:24;99146.66;;;20.80;53.15
77281;BME280;66339;47.262;17.144;2023-04-24T01:51:51;99149.66;;;20.79;53.44
77281;BME280;66339;47.262;17.144;2023-04-24T01:54:20;99147.75;;;20.79;53.27
77281;BME280;66339;47.262;17.144;2023-04-24T01:56:52;99141.59;;;20.79;53.25
77281;BME280;66339;47.262;17.144;2023-04-24T01:59:19;99136.06;;;20.75;53.44
77281;BME280;66339;47.262;17.144;2023-04-24T02:01:47;99138.91;;;20.79;53.30
77281;BME280;66339;47.262;17.144;2023-04-24T02:04:18;99141.09;;;20.77;53.15
77281;BME280;66339;47.262;17.144;2023-04-24T02:06:46;99134.16;;;20.76;53.29
77281;BME280;66339;47.262;17.144;2023-04-24T02:09:16;99136.84;;;20.76;53.14
77281;BME280;66339;47.262;17.144;2023-04-24T02:11:49;99134.63;;;20.78;53.25
77281;BME280;66339;47.262;17.144;2023-04-24T02:14:18;99135.72;;;20.77;53.06
77281;BME280;66339;47.262;17.144;2023-04-24T02:16:46;99131.94;;;20.78;53.22
77281;BME280;66339;47.262;17.144;2023-04-24T02:19:13;99128.16;;;20.79;53.25
77281;BME280;66339;47.262;17.144;2023-04-24T02:21:43;99128.16;;;20.79;53.04
77281;BME280;66339;47.262;17.144;2023-04-24T02:24:11;99129.12;;;20.83;52.79
77281;BME280;66339;47.262;17.144;2023-04-24T02:26:41;99124.37;;;20.80;52.86
77281;BME280;66339;47.262;17.144;2023-04-24T02:29:09;99124.37;;;20.80;52.79
77281;BME280;66339;47.262;17.144;2023-04-24T02:31:42;99123.56;;;20.79;52.97
77281;BME280;66339;47.262;17.144;2023-04-24T02:34:12;99127.03;;;20.80;52.83
77281;BME280;66339;47.262;17.144;2023-04-24T02:36:39;99127.34;;;20.78;52.99
77281;BME280;66339;47.262;17.144;2023-04-24T02:39:09;99127.34;;;20.78;52.83
77281;BME280;66339;47.262;17.144;2023-04-24T02:41:36;99123.87;;;20.78;52.84
77281;BME280;66339;47.262;17.144;2023-04-24T02:44:02;99121.19;;;20.78;52.76
77281;BME280;66339;47.262;17.144;2023-04-24T02:46:29;99116.59;;;20.78;52.83
77281;BME280;66339;47.262;17.144;2023-04-24T02:48:58;99115.03;;;20.77;52.78
77281;BME280;66339;47.262;17.144;2023-04-24T02:51:31;99118.81;;;20.76;52.79
77281;BME280;66339;47.262;17.144;2023-04-24T02:54:04;99103.81;;;20.75;52.91
77281;BME280;66339;47.262;17.144;2023-04-24T02:56:31;99110.44;;;20.78;52.79
77281;BME280;66339;47.262;17.144;2023-04-24T02:58:58;99110.25;;;20.74;52.69
77281;BME280;66339;47.262;17.144;2023-04-24T03:01:28;99107.28;;;20.76;52.73
77281;BME280;66339;47.262;17.144;2023-04-24T03:03:57;99110.59;;;20.73;52.73
77281;BME280;66339;47.262;17.144;2023-04-24T03:06:28;99104.09;;;20.74;52.99
77281;BME280;66339;47.262;17.144;2023-04-24T03:09:04;99096.53;;;20.76;52.66
77281;BME280;66339;47.262;17.144;2023-04-24T03:11:32;99105.06;;;20.78;52.62
77281;BME280;66339;47.262;17.144;2023-04-24T03:14:03;99107.28;;;20.76;52.65
77281;BME280;66339;47.262;17.144;2023-04-24T03:16:30;99104.88;;;20.74;52.65
77281;BME280;66339;47.262;17.144;2023-04-24T03:18:58;99101.91;;;20.76;52.59
77281;BME280;66339;47.262;17.144;2023-04-24T03:21:28;99112.78;;;20.71;52.77
77281;BME280;66339;47.262;17.144;2023-04-24T03:23:58;99101.75;;;20.72;52.64
77281;BME280;66339;47.262;17.144;2023-04-24T03:26:36;99104.09;;;20.74;52.66
77281;BME280;66339;47.262;17.144;2023-04-24T03:29:02;99110.09;;;20.71;52.76
77281;BME280;66339;47.262;17.144;2023-04-24T03:31:30;99109.31;;;20.70;52.89
77281;BME280;66339;47.262;17.144;2023-04-24T03:33:59;99117.69;;;20.69;52.82
77281;BME280;66339;47.262;17.144;2023-04-24T03:36:32;99127.03;;;20.71;52.96
77281;BME280;66339;47.262;17.144;2023-04-24T03:38:59;99121.34;;;20.73;52.71
77281;BME280;66339;47.262;17.144;2023-04-24T03:41:29;99122.44;;;20.72;52.68
77281;BME280;66339;47.262;17.144;2023-04-24T03:43:58;99119.75;;;20.72;52.75
77281;BME280;66339;47.262;17.144;2023-04-24T03:46:25;99130.00;;;20.70;52.79
77281;BME280;66339;47.262;17.144;2023-04-24T03:49:00;99130.63;;;20.67;52.85
77281;BME280;66339;47.262;17.144;2023-04-24T03:51:27;99129.56;;;20.68;52.73
77281;BME280;66339;47.262;17.144;2023-04-24T03:53:57;99132.25;;;20.68;52.81
77281;BME280;66339;47.262;17.144;2023-04-24T03:56:23;99138.84;;;20.62;52.92
77281;BME280;66339;47.262;17.144;2023-04-24T03:58:53;99134.44;;;20.66;52.83
77281;BME280;66339;47.262;17.144;2023-04-24T04:01:20;99132.84;;;20.65;52.84
77281;BME280;66339;47.262;17.144;2023-04-24T04:03:47;99142.66;;;20.69;52.72
77281;BME280;66339;47.262;17.144;2023-04-24T04:06:14;99143.28;;;20.66;52.80
77281;BME280;66339;47.262;17.144;2023-04-24T04:08:42;99149.31;;;20.72;52.79
77281;BME280;66339;47.262;17.144;2023-04-24T04:11:08;99143.28;;;20.75;52.82
77281;BME280;66339;47.262;17.144;2023-04-24T04:13:36;99146.47;;;20.77;52.79
77281;BME280;66339;47.262;17.144;2023-04-24T04:16:06;99145.25;;;20.83;52.78
77281;BME280;66339;47.262;17.144;2023-04-24T04:18:44;99146.97;;;20.88;52.69
77281;BME280;66339;47.262;17.144;2023-04-24T04:21:14;99145.56;;;20.90;52.82
77281;BME280;66339;47.262;17.144;2023-04-24T04:23:44;99151.88;;;20.94;52.83
77281;BME280;66339;47.262;17.144;2023-04-24T04:26:21;99149.06;;;20.99;52.61
77281;BME280;66339;47.262;17.144;2023-04-24T04:28:51;99150.03;;;21.03;52.85
77281;BME280;66339;47.262;17.144;2023-04-24T04:31:20;99153.16;;;21.05;52.64
77281;BME280;66339;47.262;17.144;2023-04-24T04:33:50;99156.34;;;21.07;52.65
77281;BME280;66339;47.262;17.144;2023-04-24T04:36:23;99158.72;;;21.09;52.62
77281;BME280;66339;47.262;17.144;2023-04-24T04:38:53;99156.50;;;21.11;52.67
77281;BME280;66339;47.262;17.144;2023-04-24T04:41:23;99153.50;;;21.13;52.79
77281;BME280;66339;47.262;17.144;2023-04-24T04:43:53;99162.69;;;21.12;52.96
77281;BME280;66339;47.262;17.144;2023-04-24T04:46:23;99158.88;;;21.13;52.98
77281;BME280;66339;47.262;17.144;2023-04-24T04:48:56;99162.69;;;21.12;53.09
77281;BME280;66339;47.262;17.144;2023-04-24T04:51:23;99166.94;;;21.13;52.89
77281;BME280;66339;47.262;17.144;2023-04-24T04:53:50;99169.63;;;21.13;52.93
77281;BME280;66339;47.262;17.144;2023-04-24T04:56:18;99165.03;;;21.13;52.84
77281;BME280;66339;47.262;17.144;2023-04-24T04:58:48;99165.84;;;21.14;53.11
77281;BME280;66339;47.262;17.144;2023-04-24T05:01:22;99172.81;;;21.15;53.29
77281;BME280;66339;47.262;17.144;2023-04-24T05:03:49;99166.94;;;21.13;53.02
77281;BME280;66339;47.262;17.144;2023-04-24T05:06:19;99169.63;;;21.13;52.84
77281;BME280;66339;47.262;17.144;2023-04-24T05:08:51;99168.84;;;21.12;52.85
77281;BME280;66339;47.262;17.144;2023-04-24T05:11:21;99177.25;;;21.11;52.85
77281;BME280;66339;47.262;17.144;2023-04-24T05:13:50;99179.94;;;21.11;53.26
77281;BME280;66339;47.262;17.144;2023-04-24T05:16:21;99182.12;;;21.08;53.38
77281;BME280;66339;47.262;17.144;2023-04-24T05:18:48;99175.00;;;21.13;53.27
77281;BME280;66339;47.262;17.144;2023-04-24T05:21:14;99174.84;;;21.09;53.96
77281;BME280;66339;47.262;17.144;2023-04-24T05:23:42;99185.75;;;21.13;53.70
77281;BME280;66339;47.262;17.144;2023-04-24T05:26:15;99181.34;;;21.17;53.51
77281;BME280;66339;47.262;17.144;2023-04-24T05:28:42;99186.72;;;21.17;53.35
77281;BME280;66339;47.262;17.144;2023-04-24T05:31:10;99188.28;;;21.18;52.69
77281;BME280;66339;47.262;17.144;2023-04-24T05:33:37;99185.59;;;21.18;52.54
77281;BME280;66339;47.262;17.144;2023-04-24T05:36:07;99191.31;;;21.16;52.87
77281;BME280;66339;47.262;17.144;2023-04-24T05:38:35;99192.25;;;21.20;52.98
77281;BME280;66339;47.262;17.144;2023-04-24T05:41:02;99188.78;;;21.20;53.15
77281;BME280;66339;47.262;17.144;2023-04-24T05:43:29;99184.97;;;21.21;53.43
77281;BME280;66339;47.262;17.144;2023-04-24T05:46:00;99179.00;;;21.24;53.34
77281;BME280;66339;47.262;17.144;2023-04-24T05:48:27;99175.81;;;21.22;53.15
77281;BME280;66339;47.262;17.144;2023-04-24T05:50:55;99183.88;;;21.22;53.00
77281;BME280;66339;47.262;17.144;2023-04-24T05:53:25;99178.50;;;21.22;53.06
77281;BME280;66339;47.262;17.144;2023-04-24T05:55:57;99177.87;;;21.25;52.85
77281;BME280;66339;47.262;17.144;2023-04-24T05:58:27;99178.50;;;21.22;53.00
77281;BME280;66339;47.262;17.144;2023-04-24T06:00:54;99188.16;;;21.23;53.21
77281;BME280;66339;47.262;17.144;2023-04-24T06:03:24;99198.13;;;21.22;53.39
77281;BME280;66339;47.262;17.144;2023-04-24T06:05:55;99193.84;;;21.21;52.83
77281;BME280;66339;47.262;17.144;2023-04-24T06:08:25;99200.97;;;21.17;52.76
77281;BME280;66339;47.262;17.144;2023-04-24T06:10:52;99201.28;;;21.16;52.65
77281;BME280;66339;47.262;17.144;2023-04-24T06:13:22;99199.03;;;21.09;52.80
77281;BME280;66339;47.262;17.144;2023-04-24T06:15:49;99202.19;;;21.02;52.97
77281;BME280;66339;47.262;17.144;2023-04-24T06:18:21;99202.19;;;21.02;52.86
77281;BME280;66339;47.262;17.144;2023-04-24T06:20:50;99203.28;;;21.01;52.97
77281;BME280;66339;47.262;17.144;2023-04-24T06:23:18;99205.03;;;20.97;53.06
77281;BME280;66339;47.262;17.144;2023-04-24T06:25:45;99202.94;;;20.94;53.09
77281;BME280;66339;47.262;17.144;2023-04-24T06:28:18;99197.91;;;20.93;53.27
77281;BME280;66339;47.262;17.144;2023-04-24T06:30:48;99201.88;;;20.95;53.06
77281;BME280;66339;47.262;17.144;2023-04-24T06:33:16;99200.75;;;20.88;52.28
77281;BME280;66339;47.262;17.144;2023-04-24T06:35:51;99196.41;;;20.78;52.08
77281;BME280;66339;47.262;17.144;2023-04-24T06:38:18;99203.88;;;20.81;51.58
77281;BME280;66339;47.262;17.144;2023-04-24T06:40:45;99206.09;;;20.79;51.42
77281;BME280;66339;47.262;17.144;2023-04-24T06:43:12;99198.31;;;20.77;51.24
77281;BME280;66339;47.262;17.144;2023-04-24T06:45:44;99205.25;;;20.70;51.48
77281;BME280;66339;47.262;17.144;2023-04-24T06:48:13;99205.56;;;20.68;51.08
77281;BME280;66339;47.262;17.144;2023-04-24T06:50:43;99210.00;;;20.73;50.90
77281;BME280;66339;47.262;17.144;2023-04-24T06:53:12;99204.62;;;20.73;50.75
77281;BME280;66339;47.262;17.144;2023-04-24T06:55:40;99204.03;;;20.76;50.51
77281;BME280;66339;47.262;17.144;2023-04-24T06:58:07;99211.72;;;20.69;50.56
77281;BME280;66339;47.262;17.144;2023-04-24T07:00:39;99214.88;;;20.71;50.37
77281;BME280;66339;47.262;17.144;2023-04-24T07:03:09;99214.78;;;20.76;50.09
77281;BME280;66339;47.262;17.144;2023-04-24T07:05:40;99213.47;;;20.73;50.02
77281;BME280;66339;47.262;17.144;2023-04-24T07:08:11;99218.53;;;20.75;50.02
77281;BME280;66339;47.262;17.144;2023-04-24T07:10:41;99215.37;;;20.73;50.08
77281;BME280;66339;47.262;17.144;2023-04-24T07:13:09;99219.97;;;20.72;51.26
77281;BME280;66339;47.262;17.144;2023-04-24T07:15:36;99214.78;;;20.76;50.89
77281;BME280;66339;47.262;17.144;2023-04-24T07:18:03;99214.78;;;20.76;51.24
77281;BME280;66339;47.262;17.144;2023-04-24T07:20:37;99214.16;;;20.79;51.26
77281;BME280;66339;47.262;17.144;2023-04-24T07:23:05;99222.22;;;20.79;51.91
77281;BME280;66339;47.262;17.144;2023-04-24T07:25:32;99225.03;;;20.82;51.07
77281;BME280;66339;47.262;17.144;2023-04-24T07:28:06;99222.34;;;20.82;50.82
77281;BME280;66339;47.262;17.144;2023-04-24T07:30:34;99227.09;;;20.77;50.83
77281;BME280;66339;47.262;17.144;2023-04-24T07:33:04;99224.56;;;20.72;50.37
77281;BME280;66339;47.262;17.144;2023-04-24T07:35:32;99226.91;;;20.73;51.52
77281;BME280;66339;47.262;17.144;2023-04-24T07:38:06;99231.69;;;20.76;51.96
77281;BME280;66339;47.262;17.144;2023-04-24T07:40:37;99231.34;;;20.78;51.43
77281;BME280;66339;47.262;17.144;2023-04-24T07:43:04;99226.13;;;20.73;51.12
77281;BME280;66339;47.262;17.144;2023-04-24T07:45:33;99225.16;;;20.69;51.06
77281;BME280;66339;47.262;17.144;2023-04-24T07:48:08;99232.28;;;20.73;51.16
77281;BME280;66339;47.262;17.144;2023-04-24T07:50:38;99227.84;;;20.69;51.11
77281;BME280;66339;47.262;17.144;2023-04-24T07:53:09;99234.34;;;20.68;51.42
77281;BME280;66339;47.262;17.144;2023-04-24T07:55:39;99226.75;;;20.70;52.08
77281;BME280;66339;47.262;17.144;2023-04-24T07:58:10;99231.00;;;20.71;52.35
77281;BME280;66339;47.262;17.144;2023-04-24T08:00:40;99226.75;;;20.70;52.69
77281;BME280;66339;47.262;17.144;2023-04-24T08:03:13;99223.59;;;20.68;52.82
77281;BME280;66339;47.262;17.144;2023-04-24T08:05:49;99225.16;;;20.69;52.25
77281;BME280;66339;47.262;17.144;2023-04-24T08:08:21;99222.16;;;20.70;52.76
77281;BME280;66339;47.262;17.144;2023-04-24T08:10:52;99222.16;;;20.70;52.79
77281;BME280;66339;47.262;17.144;2023-04-24T08:13:21;99229.13;;;20.71;52.72
77281;BME280;66339;47.262;17.144;2023-04-24T08:15:49;99225.63;;;20.71;52.76
77281;BME280;66339;47.262;17.144;2023-04-24T08:18:26;99228.31;;;20.71;52.72
77281;BME280;66339;47.262;17.144;2023-04-24T08:20:53;99230.53;;;20.69;52.88
77281;BME280;66339;47.262;17.144;2023-04-24T08:23:20;99221.38;;;20.70;52.77
77281;BME280;66339;47.262;17.144;2023-04-24T08:25:51;99226.75;;;20.70;52.93
77281;BME280;66339;47.262;17.144;2023-04-24T08:28:22;99227.53;;;20.70;52.80
77281;BME280;66339;47.262;17.144;2023-04-24T08:30:52;99220.59;;;20.69;52.82
77281;BME280;66339;47.262;17.144;2023-04-24T08:33:23;99218.22;;;20.68;52.88
77281;BME280;66339;47.262;17.144;2023-04-24T08:35:53;99219.00;;;20.68;52.93
77281;BME280;66339;47.262;17.144;2023-04-24T08:38:20;99217.44;;;20.67;52.96
77281;BME280;66339;47.262;17.144;2023-04-24T08:40:48;99218.22;;;20.68;52.49
77281;BME280;66339;47.262;17.144;2023-04-24T08:43:17;99219.28;;;20.67;52.13
77281;BME280;66339;47.262;17.144;2023-04-24T08:45:48;99223.41;;;20.64;51.90
77281;BME280;66339;47.262;17.144;2023-04-24T08:48:24;99221.03;;;20.63;51.93
77281;BME280;66339;47.262;17.144;2023-04-24T08:50:57;99231.75;;;20.63;51.90
77281;BME280;66339;47.262;17.144;2023-04-24T08:53:30;99233.19;;;20.60;52.29
77281;BME280;66339;47.262;17.144;2023-04-24T08:56:06;99223.25;;;20.61;52.56
77281;BME280;66339;47.262;17.144;2023-04-24T08:58:37;99231.75;;;20.63;52.69
77281;BME280;66339;47.262;17.144;2023-04-24T09:01:12;99231.75;;;20.63;52.54
77281;BME280;66339;47.262;17.144;2023-04-24T09:03:40;99231.75;;;20.63;52.82
77281;BME280;66339;47.262;17.144;2023-04-24T09:06:12;99237.13;;;20.63;52.49
77281;BME280;66339;47.262;17.144;2023-04-24T09:08:42;99230.97;;;20.62;52.40
77281;BME280;66339;47.262;17.144;2023-04-24T09:11:11;99234.78;;;20.61;52.62
77281;BME280;66339;47.262;17.144;2023-04-24T09:13:38;99236.16;;;20.58;52.18
77281;BME280;66339;47.262;17.144;2023-04-24T09:16:12;99240.16;;;20.61;52.31
77281;BME280;66339;47.262;17.144;2023-04-24T09:18:40;99235.56;;;20.62;52.47
77281;BME280;66339;47.262;17.144;2023-04-24T09:21:07;99233.97;;;20.61;52.53
77281;BME280;66339;47.262;17.144;2023-04-24T09:23:34;99241.53;;;20.58;51.74
77281;BME280;66339;47.262;17.144;2023-04-24T09:26:04;99239.31;;;20.52;51.47
77281;BME280;66339;47.262;17.144;2023-04-24T09:28:32;99243.97;;;20.46;51.14
77281;BME280;66339;47.262;17.144;2023-04-24T09:31:09;99245.09;;;20.45;51.01
77281;BME280;66339;47.262;17.144;2023-04-24T09:33:38;99245.09;;;20.45;50.85
77281;BME280;66339;47.262;17.144;2023-04-24T09:36:05;99243.09;;;20.51;51.00
77281;BME280;66339;47.262;17.144;2023-04-24T09:38:36;99246.56;;;20.51;51.20
77281;BME280;66339;47.262;17.144;2023-04-24T09:41:05;99244.19;;;20.50;51.77
77281;BME280;66339;47.262;17.144;2023-04-24T09:43:32;99248.16;;;20.52;52.23
77281;BME280;66339;47.262;17.144;2023-04-24T09:46:09;99244.88;;;20.55;52.62
77281;BME280;66339;47.262;17.144;2023-04-24T09:48:37;99248.63;;;20.54;52.88
77281;BME280;66339;47.262;17.144;2023-04-24T09:51:10;99245.94;;;20.54;53.00
77281;BME280;66339;47.262;17.144;2023-04-24T09:53:44;99249.13;;;20.56;53.07
77281;BME280;66339;47.262;17.144;2023-04-24T09:56:14;99246.56;;;20.51;51.96
77281;BME280;66339;47.262;17.144;2023-04-24T09:58:47;99247.56;;;20.55;51.75
77281;BME280;66339;47.262;17.144;2023-04-24T10:01:14;99241.19;;;20.51;52.37
77281;BME280;66339;47.262;17.144;2023-04-24T10:03:42;99246.56;;;20.51;52.44
77281;BME280;66339;47.262;17.144;2023-04-24T10:06:11;99245.56;;;20.47;52.88
77281;BME280;66339;47.262;17.144;2023-04-24T10:08:38;99238.50;;;20.51;52.87
77281;BME280;66339;47.262;17.144;2023-04-24T10:11:11;99243.59;;;20.53;53.21
77281;BME280;66339;47.262;17.144;2023-04-24T10:13:38;99241.69;;;20.53;53.38
77281;BME280;66339;47.262;17.144;2023-04-24T10:16:09;99244.88;;;20.55;53.30
77281;BME280;66339;47.262;17.144;2023-04-24T10:18:38;99245.94;;;20.54;53.34
77281;BME280;66339;47.262;17.144;2023-04-24T10:21:09;99251.94;;;20.51;53.32
77281;BME280;66339;47.262;17.144;2023-04-24T10:23:38;99251.31;;;20.54;53.18
77281;BME280;66339;47.262;17.144;2023-04-24T10:26:12;99252.13;;;20.55;53.45
77281;BME280;66339;47.262;17.144;2023-04-24T10:28:44;99248.16;;;20.52;53.48
77281;BME280;66339;47.262;17.144;2023-04-24T10:31:14;99249.75;;;20.53;53.59
77281;BME280;66339;47.262;17.144;2023-04-24T10:33:44;99252.44;;;20.53;53.59
77281;BME280;66339;47.262;17.144;2023-04-24T10:36:13;99253.53;;;20.52;53.63
77281;BME280;66339;47.262;17.144;2023-04-24T10:38:45;99244.06;;;20.55;53.79
77281;BME280;66339;47.262;17.144;2023-04-24T10:41:16;99255.28;;;20.57;53.60
77281;BME280;66339;47.262;17.144;2023-04-24T10:43:48;99253.25;;;20.63;53.79
77281;BME280;66339;47.262;17.144;2023-04-24T10:46:25;99251.22;;;20.59;53.61
77281;BME280;66339;47.262;17.144;2023-04-24T10:48:55;99247.25;;;20.57;53.79
77281;BME280;66339;47.262;17.144;2023-04-24T10:51:23;99252.94;;;20.55;53.74
77281;BME280;66339;47.262;17.144;2023-04-24T10:53:51;99251.81;;;20.56;53.94
77281;BME280;66339;47.262;17.144;2023-04-24T10:56:21;99250.84;;;20.52;53.79
77281;BME280;66339;47.262;17.144;2023-04-24T10:58:49;99244.38;;;20.53;53.74
77281;BME280;66339;47.262;17.144;2023-04-24T11:01:33;99257.81;;;20.53;53.67
77281;BME280;66339;47.262;17.144;2023-04-24T11:04:01;99255.63;;;20.55;53.91
77281;BME280;66339;47.262;17.144;2023-04-24T11:06:36;99260.34;;;20.58;53.64
77281;BME280;66339;47.262;17.144;2023-04-24T11:11:32;99254.50;;;20.56;53.58
77281;BME280;66339;47.262;17.144;2023-04-24T11:16:30;99266.50;;;20.59;53.78
77281;BME280;66339;47.262;17.144;2023-04-24T11:21:30;99269.69;;;20.61;53.56
77281;BME280;66339;47.262;17.144;2023-04-24T11:24:20;99271.88;;;20.59;53.51
77281;BME280;66339;47.262;17.144;2023-04-24T11:26:47;99271.75;;;20.55;53.74
77281;BME280;66339;47.262;17.144;2023-04-24T11:29:19;99282.34;;;20.61;53.61
77281;BME280;66339;47.262;17.144;2023-04-24T11:31:51;99282.34;;;20.61;53.86
77281;BME280;66339;47.262;17.144;2023-04-24T11:34:24;99285.50;;;20.63;53.83
77281;BME280;66339;47.262;17.144;2023-04-24T11:36:51;99280.12;;;20.63;53.72
77281;BME280;66339;47.262;17.144;2023-04-24T11:39:25;99282.94;;;20.57;53.88
77281;BME280;66339;47.262;17.144;2023-04-24T11:42:01;99293.09;;;20.61;53.60
77281;BME280;66339;47.262;17.144;2023-04-24T11:44:31;99277.56;;;20.57;53.72
77281;BME280;66339;47.262;17.144;2023-04-24T11:47:00;99300.03;;;20.62;53.70
77281;BME280;66339;47.262;17.144;2023-04-24T11:49:27;99290.41;;;20.61;53.74
77281;BME280;66339;47.262;17.144;2023-04-24T11:51:56;99302.88;;;20.56;53.80
77281;BME280;66339;47.262;17.144;2023-04-24T11:54:26;99306.53;;;20.61;53.49
77281;BME280;66339;47.262;17.144;2023-04-24T11:56:56;99298.47;;;20.61;53.38
77281;BME280;66339;47.262;17.144;2023-04-24T11:59:27;99307.63;;;20.59;53.36
77281;BME280;66339;47.262;17.144;2023-04-24T12:01:54;99312.50;;;20.57;53.60
77281;BME280;66339;47.262;17.144;2023-04-24T12:04:21;99309.81;;;20.57;53.47
77281;BME280;66339;47.262;17.144;2023-04-24T12:07:04;99320.56;;;20.57;53.49
77281;BME280;66339;47.262;17.144;2023-04-24T12:09:40;99316.28;;;20.56;53.75
77281;BME280;66339;47.262;17.144;2023-04-24T12:12:08;99311.41;;;20.58;53.35
77281;BME280;66339;47.262;17.144;2023-04-24T12:14:42;99311.41;;;20.58;53.40
77281;BME280;66339;47.262;17.144;2023-04-24T12:17:09;99313.00;;;20.59;53.31
77281;BME280;66339;47.262;17.144;2023-04-24T12:19:36;99315.78;;;20.54;53.54
77281;BME280;66339;47.262;17.144;2023-04-24T12:22:04;99308.84;;;20.53;53.58
77281;BME280;66339;47.262;17.144;2023-04-24T12:24:54;99311.53;;;20.53;53.54
77281;BME280;66339;47.262;17.144;2023-04-24T12:27:33;99316.41;;;20.51;53.54
77281;BME280;66339;47.262;17.144;2023-04-24T12:30:09;99318.47;;;20.54;53.04
77281;BME280;66339;47.262;17.144;2023-04-24T12:32:45;99323.66;;;20.51;53.05
77281;BME280;66339;47.262;17.144;2023-04-24T12:35:18;99320.78;;;20.47;53.11
77281;BME280;66339;47.262;17.144;2023-04-24T12:37:49;99326.28;;;20.42;53.19
77281;BME280;66339;47.262;17.144;2023-04-24T12:40:17;99331.66;;;20.42;53.29
77281;BME280;66339;47.262;17.144;2023-04-24T12:42:46;99327.97;;;20.38;53.57
77281;BME280;66339;47.262;17.144;2023-04-24T12:45:17;99327.38;;;20.41;53.47
77281;BME280;66339;47.262;17.144;2023-04-24T12:47:45;99331.03;;;20.45;53.36
77281;BME280;66339;47.262;17.144;2023-04-24T12:50:19;99325.16;;;20.43;53.31
77281;BME280;66339;47.262;17.144;2023-04-24T12:52:49;99332.94;;;20.45;53.21
77281;BME280;66339;47.262;17.144;2023-04-24T12:55:16;99325.16;;;20.43;53.27
77281;BME280;66339;47.262;17.144;2023-04-24T12:57:49;99335.12;;;20.43;53.22
77281;BME280;66339;47.262;17.144;2023-04-24T13:00:17;99330.06;;;20.41;53.26
77281;BME280;66339;47.262;17.144;2023-04-24T13:02:48;99329.28;;;20.41;53.30
77281;BME280;66339;47.262;17.144;2023-04-24T13:05:19;99320.44;;;20.40;53.31
77281;BME280;66339;47.262;17.144;2023-04-24T13:07:49;99327.97;;;20.38;53.33
77281;BME280;66339;47.262;17.144;2023-04-24T13:10:19;99314.56;;;20.38;53.34
77281;BME280;66339;47.262;17.144;2023-04-24T13:12:47;99318.03;;;20.39;53.41
77281;BME280;66339;47.262;17.144;2023-04-24T13:15:17;99318.34;;;20.37;53.23